Time;durP1;ratioP1;P1;durP2;ratioP2;P2;SDS_P1;SDS_P2;PMS_P1;PMS_P2;Temp;Humidity;BMP_temperature;BMP_pressure;BME280_temperature;BME280_humidity;BME280_pressure;Samples;Min_cycle;Max_cycle;Signal;HPM_P1;HPM_P2
2022/07/09 00:01:23;;;;;;;0.60;0.60;;;;;;;28.74;30.94;97269.56;5073915;28;20020;-28
2022/07/09 00:03:49;;;;;;;0.60;0.40;;;;;;;28.74;30.88;97270.31;5073854;28;20021;-27
2022/07/09 00:06:14;;;;;;;0.63;0.50;;;;;;;28.75;31.02;97266.25;5073377;28;20073;-28
2022/07/09 00:08:40;;;;;;;0.40;0.40;;;;;;;28.69;30.96;97270.38;5073788;28;20395;-29
2022/07/09 00:11:05;;;;;;;0.50;0.35;;;;;;;28.72;31.00;97264.50;5073733;28;20030;-28
2022/07/09 00:13:31;;;;;;;0.40;0.40;;;;;;;28.73;30.93;97276.41;5073812;28;20475;-27
2022/07/09 00:15:57;;;;;;;2.25;0.50;;;;;;;28.73;31.08;97279.22;5073643;28;20078;-29
2022/07/09 00:18:22;;;;;;;0.40;0.40;;;;;;;28.78;30.90;97276.38;5073446;28;20028;-27
2022/07/09 00:20:47;;;;;;;2.10;0.60;;;;;;;28.75;30.86;97283.00;5073722;28;20024;-28
2022/07/09 00:23:13;;;;;;;1.27;0.43;;;;;;;28.82;30.81;97271.25;5073449;28;20028;-28
2022/07/09 00:25:38;;;;;;;1.25;0.40;;;;;;;28.76;30.75;97278.16;5072164;28;20024;-28
2022/07/09 00:28:04;;;;;;;0.55;0.40;;;;;;;28.73;31.11;97265.25;5073400;28;20044;-28
2022/07/09 00:30:29;;;;;;;0.50;0.50;;;;;;;28.74;31.06;97270.31;5073089;28;20031;-28
2022/07/09 00:32:55;;;;;;;0.70;0.50;;;;;;;28.73;31.01;97274.38;5073235;28;20109;-27
2022/07/09 00:35:20;;;;;;;0.40;0.40;;;;;;;28.70;31.12;97278.22;5073122;28;20040;-29
2022/07/09 00:37:46;;;;;;;0.52;0.47;;;;;;;28.75;31.10;97268.28;5073227;28;20536;-28
2022/07/09 00:40:11;;;;;;;1.58;0.52;;;;;;;28.62;31.34;97263.38;5073327;28;20090;-28
2022/07/09 00:42:37;;;;;;;0.85;0.60;;;;;;;28.72;31.14;97275.66;5072920;28;20513;-28
2022/07/09 00:45:02;;;;;;;0.85;0.60;;;;;;;28.65;31.48;97273.50;5073005;28;20036;-28
2022/07/09 00:47:28;;;;;;;1.30;0.50;;;;;;;28.75;31.02;97274.63;5073067;28;20054;-27
2022/07/09 00:49:54;;;;;;;1.13;0.63;;;;;;;28.76;31.17;97264.97;5072839;28;20024;-28
2022/07/09 00:52:20;;;;;;;2.80;0.90;;;;;;;28.76;31.24;97262.16;5072934;28;20424;-28
2022/07/09 00:54:46;;;;;;;2.42;0.70;;;;;;;28.72;31.16;97261.72;5072379;28;20675;-28
2022/07/09 00:57:12;;;;;;;1.52;0.57;;;;;;;28.75;31.21;97260.66;5070925;28;20037;-28
2022/07/09 00:59:39;;;;;;;1.17;0.70;;;;;;;28.77;30.93;97252.50;5072768;28;20031;-27
2022/07/09 01:02:07;;;;;;;0.90;0.70;;;;;;;28.69;31.44;97262.75;5072749;28;20048;-28
2022/07/09 01:04:33;;;;;;;1.70;0.47;;;;;;;28.71;31.58;97257.41;5072726;28;20090;-27
2022/07/09 01:06:58;;;;;;;1.73;0.60;;;;;;;28.71;31.39;97256.66;5072270;28;20044;-27
2022/07/09 01:09:25;;;;;;;1.45;0.70;;;;;;;28.76;31.29;97262.16;5072670;28;20032;-28
2022/07/09 01:11:51;;;;;;;1.50;0.60;;;;;;;28.72;31.45;97253.34;5072671;28;20043;-27
2022/07/09 01:14:17;;;;;;;1.52;0.70;;;;;;;28.69;31.52;97257.19;5072492;28;20028;-28
2022/07/09 01:16:42;;;;;;;0.82;0.68;;;;;;;28.76;31.34;97251.00;5072339;28;20441;-27
2022/07/09 01:19:08;;;;;;;0.65;0.50;;;;;;;28.72;31.42;97256.13;5072092;28;20027;-27
2022/07/09 01:21:34;;;;;;;0.80;0.68;;;;;;;28.70;31.38;97258.69;5072357;28;20059;-28
2022/07/09 01:23:59;;;;;;;2.30;1.05;;;;;;;28.71;31.71;97251.06;5072348;28;20028;-28
2022/07/09 01:26:25;;;;;;;1.30;0.65;;;;;;;28.78;31.51;97247.69;5072160;28;20020;-27
2022/07/09 01:28:51;;;;;;;1.00;0.60;;;;;;;28.76;31.46;97242.63;5072298;28;20040;-28
2022/07/09 01:31:17;;;;;;;1.73;0.60;;;;;;;28.78;31.37;97245.69;5071905;28;20029;-28
2022/07/09 01:33:43;;;;;;;1.90;0.60;;;;;;;28.75;31.54;97246.69;5072154;28;20028;-28
2022/07/09 01:36:08;;;;;;;1.33;0.50;;;;;;;28.81;31.36;97236.22;5070703;28;20040;-28
2022/07/09 01:38:35;;;;;;;0.80;0.50;;;;;;;28.75;31.41;97243.16;5072090;28;20028;-28
2022/07/09 01:41:00;;;;;;;0.35;0.35;;;;;;;28.76;31.50;97245.41;5071603;28;20031;-28
2022/07/09 01:43:26;;;;;;;0.75;0.40;;;;;;;28.76;31.35;97241.88;5071537;28;20029;-30
2022/07/09 01:45:51;;;;;;;0.82;0.60;;;;;;;28.77;31.48;97244.13;5071923;28;20035;-29
2022/07/09 01:48:17;;;;;;;0.80;0.50;;;;;;;28.76;31.64;97244.66;5071818;28;20056;-28
2022/07/09 01:50:42;;;;;;;4.30;1.42;;;;;;;28.83;31.47;97238.50;5071837;28;20032;-28
2022/07/09 01:53:09;;;;;;;2.08;0.70;;;;;;;28.78;31.50;97239.31;5071611;28;20028;-27
2022/07/09 01:55:35;;;;;;;6.90;0.73;;;;;;;28.82;31.49;97234.19;5071570;28;20028;-28
2022/07/09 01:58:00;;;;;;;4.93;0.70;;;;;;;28.76;31.81;97234.25;5070360;28;20031;-27
2022/07/09 02:00:27;;;;;;;2.15;0.52;;;;;;;28.84;31.55;97240.75;5071793;28;20536;-27
2022/07/09 02:02:53;;;;;;;1.98;0.75;;;;;;;28.87;31.36;97238.94;5071650;28;20039;-28
2022/07/09 02:05:20;;;;;;;1.45;0.70;;;;;;;28.87;31.33;97234.13;5078607;28;20016;-28
2022/07/09 02:07:46;;;;;;;5.30;0.80;;;;;;;28.89;31.37;97239.94;5076332;28;20060;-28
2022/07/09 02:10:12;;;;;;;0.52;0.40;;;;;;;28.83;31.68;97246.88;5073480;28;20017;-29
2022/07/09 02:12:38;;;;;;;1.30;0.60;;;;;;;28.85;31.47;97236.69;5072276;28;20027;-27
2022/07/09 02:15:06;;;;;;;1.10;0.60;;;;;;;28.86;31.69;97226.28;5073336;28;20025;-27
2022/07/09 02:17:32;;;;;;;1.73;0.60;;;;;;;28.78;31.76;97240.09;5072306;28;20374;-28
2022/07/09 02:19:58;;;;;;;0.93;0.43;;;;;;;28.77;31.56;97237.81;5073287;28;20025;-28
2022/07/09 02:22:23;;;;;;;0.50;0.50;;;;;;;28.76;31.65;97234.25;5073606;28;20070;-29
2022/07/09 02:24:49;;;;;;;4.38;0.60;;;;;;;28.73;31.78;97229.72;5073419;28;20023;-27
2022/07/09 02:27:14;;;;;;;0.77;0.52;;;;;;;28.79;31.50;97227.66;5073460;28;20020;-28
2022/07/09 02:29:40;;;;;;;1.20;0.60;;;;;;;28.78;31.58;97228.94;5073122;28;20031;-29
2022/07/09 02:32:06;;;;;;;1.50;0.73;;;;;;;28.79;31.73;97229.69;5073317;28;20455;-28
2022/07/09 02:34:32;;;;;;;1.40;0.60;;;;;;;28.77;31.49;97235.75;5073063;28;20029;-30
2022/07/09 02:36:57;;;;;;;1.17;0.75;;;;;;;28.73;31.80;97226.94;5073235;28;20029;-28
2022/07/09 02:39:23;;;;;;;1.75;0.60;;;;;;;28.69;31.74;97223.69;5073370;28;20020;-28
2022/07/09 02:41:50;;;;;;;2.47;0.60;;;;;;;28.77;31.74;97226.63;5073196;28;20048;-28
2022/07/09 02:44:15;;;;;;;1.27;1.15;;;;;;;28.75;31.74;97221.56;5073410;28;20075;-28
2022/07/09 02:46:41;;;;;;;1.85;0.70;;;;;;;28.71;31.75;97218.34;5073069;28;20028;-27
2022/07/09 02:49:06;;;;;;;1.80;0.73;;;;;;;28.72;31.67;97219.09;5073127;28;20016;-28
2022/07/09 02:51:32;;;;;;;2.28;0.70;;;;;;;28.72;31.71;97219.84;5073252;28;20039;-28
2022/07/09 02:53:57;;;;;;;0.98;0.70;;;;;;;28.67;31.84;97215.13;5076885;28;20031;-28
2022/07/09 02:56:23;;;;;;;0.98;0.70;;;;;;;28.71;31.73;97204.38;5077061;28;20556;-27
2022/07/09 02:58:48;;;;;;;1.95;0.70;;;;;;;28.70;31.86;97207.69;5075747;28;20390;-28
2022/07/09 03:01:13;;;;;;;3.03;0.68;;;;;;;28.71;31.95;97204.38;5076938;28;20463;-27
2022/07/09 03:03:39;;;;;;;0.88;0.75;;;;;;;28.68;31.91;97199.88;5077112;28;20476;-27
2022/07/09 03:06:07;;;;;;;1.45;0.80;;;;;;;28.66;31.91;97196.84;5077022;28;20060;-28
2022/07/09 03:08:33;;;;;;;0.98;0.65;;;;;;;28.64;31.77;97191.03;5077141;28;20046;-28
2022/07/09 03:10:59;;;;;;;0.80;0.80;;;;;;;28.59;31.99;97194.66;5076724;28;20103;-27
2022/07/09 03:13:24;;;;;;;1.33;0.80;;;;;;;28.52;32.45;97200.84;5076967;28;20023;-28
2022/07/09 03:15:50;;;;;;;1.40;0.60;;;;;;;28.56;32.28;97198.53;5076875;28;20078;-28
2022/07/09 03:18:15;;;;;;;1.90;0.80;;;;;;;28.64;31.99;97193.84;5076582;28;20023;-27
2022/07/09 03:20:41;;;;;;;1.52;0.77;;;;;;;28.64;31.79;97193.84;5076660;28;20020;-27
2022/07/09 03:23:06;;;;;;;1.27;0.65;;;;;;;28.57;32.08;97194.44;5076514;28;20036;-28
2022/07/09 03:25:33;;;;;;;1.25;0.60;;;;;;;28.59;32.01;97191.88;5076496;28;20132;-27
2022/07/09 03:27:58;;;;;;;2.75;1.00;;;;;;;28.62;32.12;97198.44;5076447;28;20099;-28
2022/07/09 03:30:24;;;;;;;0.80;0.50;;;;;;;28.50;32.33;97206.22;5076389;28;20107;-27
2022/07/09 03:32:50;;;;;;;2.53;0.60;;;;;;;28.42;32.21;97202.53;5076548;28;20016;-28
2022/07/09 03:35:16;;;;;;;1.73;0.73;;;;;;;28.55;32.05;97203.34;5076352;28;20436;-27
2022/07/09 03:37:42;;;;;;;1.02;0.80;;;;;;;28.47;32.29;97198.88;5076275;28;20028;-28
2022/07/09 03:40:08;;;;;;;2.15;0.75;;;;;;;28.55;32.28;97194.22;5076247;28;20024;-27
2022/07/09 03:42:34;;;;;;;2.70;0.70;;;;;;;28.61;32.08;97197.69;5076226;28;20486;-27
2022/07/09 03:44:59;;;;;;;1.48;0.93;;;;;;;28.61;32.06;97203.25;5076166;28;20027;-27
2022/07/09 03:47:25;;;;;;;1.30;0.70;;;;;;;28.62;32.11;97201.22;5076297;28;20474;-27
2022/07/09 03:49:50;;;;;;;2.38;0.70;;;;;;;28.56;32.06;97213.22;5076069;28;20463;-28
2022/07/09 03:52:16;;;;;;;2.08;0.90;;;;;;;28.50;32.38;97223.72;5075939;28;20020;-28
2022/07/09 03:54:41;;;;;;;3.08;0.80;;;;;;;28.49;32.23;97211.03;5076270;28;20024;-27
2022/07/09 03:57:07;;;;;;;1.13;0.80;;;;;;;28.52;32.17;97214.81;5075955;28;20028;-28
2022/07/09 03:59:32;;;;;;;1.50;1.00;;;;;;;28.51;32.10;97202.13;5075978;28;20031;-27
2022/07/09 04:01:58;;;;;;;1.98;0.82;;;;;;;28.47;32.39;97224.00;5076115;28;20020;-29
2022/07/09 04:04:24;;;;;;;2.13;0.90;;;;;;;28.49;32.03;97227.78;5075551;28;20035;-28
2022/07/09 04:06:49;;;;;;;2.33;0.90;;;;;;;28.46;32.13;97228.06;5079842;28;20054;-28
2022/07/09 04:09:15;;;;;;;4.32;1.00;;;;;;;28.54;32.27;97237.38;5091615;28;20036;-28
2022/07/09 04:11:40;;;;;;;1.90;0.90;;;;;;;28.52;32.24;97232.31;5079446;28;20374;-28
2022/07/09 04:14:06;;;;;;;1.80;0.90;;;;;;;28.46;32.08;97230.84;5074358;28;20024;-28
2022/07/09 04:16:31;;;;;;;2.50;1.00;;;;;;;28.46;32.41;97228.81;5074433;28;20027;-27
2022/07/09 04:18:57;;;;;;;2.58;0.70;;;;;;;28.46;32.29;97230.84;5073198;28;20099;-29
2022/07/09 04:21:22;;;;;;;1.75;0.80;;;;;;;28.40;32.65;97235.78;5074268;28;20070;-28
2022/07/09 04:23:52;;;;;;;1.80;0.88;;;;;;;28.47;32.39;97237.94;5074451;28;20024;-27
2022/07/09 04:26:21;;;;;;;1.45;0.88;;;;;;;28.42;32.65;97233.22;5074298;28;20016;-28
2022/07/09 04:28:46;;;;;;;3.00;0.80;;;;;;;28.51;32.10;97238.41;5074325;28;20039;-28
2022/07/09 04:31:12;;;;;;;2.15;0.80;;;;;;;28.49;32.42;97240.97;5074185;28;20024;-28
2022/07/09 04:33:38;;;;;;;1.80;0.70;;;;;;;28.51;32.10;97236.38;5073809;28;20025;-28
2022/07/09 04:36:04;;;;;;;1.40;0.63;;;;;;;28.46;32.22;97239.97;5074740;28;20023;-28
2022/07/09 04:38:30;;;;;;;2.13;0.75;;;;;;;28.52;32.20;97234.34;5074363;28;20471;-28
2022/07/09 04:40:56;;;;;;;2.63;1.00;;;;;;;28.47;32.43;97238.72;5074044;28;20115;-27
2022/07/09 04:43:22;;;;;;;2.17;0.88;;;;;;;28.49;32.52;97229.81;5074003;28;20103;-28
2022/07/09 04:45:47;;;;;;;2.33;0.90;;;;;;;28.49;32.37;97233.34;5074068;28;20414;-28
2022/07/09 04:48:13;;;;;;;0.80;0.60;;;;;;;28.46;32.55;97222.50;5074293;28;20021;-28
2022/07/09 04:50:38;;;;;;;1.17;0.80;;;;;;;28.43;32.73;97224.31;5074080;28;20025;-28
2022/07/09 04:53:04;;;;;;;1.00;0.80;;;;;;;28.48;32.53;97234.63;5073972;28;20086;-28
2022/07/09 04:55:30;;;;;;;1.58;0.70;;;;;;;28.44;32.51;97233.41;5073925;28;20052;-27
2022/07/09 04:57:56;;;;;;;1.25;0.65;;;;;;;28.41;32.49;97229.66;5073883;28;20104;-28
2022/07/09 05:00:21;;;;;;;2.17;1.00;;;;;;;28.42;32.65;97216.47;5073791;28;20024;-28
2022/07/09 05:02:47;;;;;;;3.00;0.93;;;;;;;28.42;32.81;97213.69;5073832;28;20095;-27
2022/07/09 05:05:13;;;;;;;2.20;0.75;;;;;;;28.44;32.46;97216.69;5073752;28;20029;-27
2022/07/09 05:07:43;;;;;;;0.70;0.50;;;;;;;28.38;32.52;97227.16;5031759;28;1205721;-27
2022/07/09 05:10:09;;;;;;;1.92;0.90;;;;;;;28.42;32.75;97239.56;5074397;28;20059;-28
2022/07/09 05:12:35;;;;;;;2.20;0.80;;;;;;;28.40;32.51;97230.19;5074500;28;20032;-30
2022/07/09 05:15:00;;;;;;;1.63;0.73;;;;;;;28.42;32.46;97233.97;5073652;28;20391;-27
2022/07/09 05:17:26;;;;;;;1.23;0.70;;;;;;;28.31;32.92;97228.53;5074363;28;20032;-27
2022/07/09 05:19:51;;;;;;;2.25;0.70;;;;;;;28.34;32.73;97227.47;5074361;28;20028;-28
2022/07/09 05:22:17;;;;;;;1.70;0.77;;;;;;;28.35;32.62;97231.00;5074243;28;20463;-29
2022/07/09 05:24:43;;;;;;;0.75;0.60;;;;;;;28.26;32.70;97234.19;5074174;28;20020;-28
2022/07/09 05:27:09;;;;;;;1.60;0.75;;;;;;;28.29;32.98;97230.34;5074297;28;20020;-27
2022/07/09 05:29:35;;;;;;;1.05;0.70;;;;;;;28.30;32.97;97229.81;5074154;28;20024;-27
2022/07/09 05:32:02;;;;;;;1.83;0.60;;;;;;;28.40;32.85;97224.63;5074543;28;20043;-28
2022/07/09 05:34:27;;;;;;;3.10;1.00;;;;;;;28.38;32.96;97236.28;5074259;28;20017;-27
2022/07/09 05:36:54;;;;;;;2.17;0.98;;;;;;;28.35;32.85;97233.78;5074225;28;20111;-27
2022/07/09 05:39:20;;;;;;;0.90;0.60;;;;;;;28.33;32.83;97234.31;5074285;28;20040;-27
2022/07/09 05:41:46;;;;;;;2.58;1.02;;;;;;;28.31;32.71;97236.16;5074143;28;20098;-27
2022/07/09 05:44:11;;;;;;;1.23;0.70;;;;;;;28.29;32.86;97230.34;5073919;28;20029;-28
2022/07/09 05:46:37;;;;;;;4.05;0.80;;;;;;;28.23;33.04;97222.78;5073800;28;20026;-28
2022/07/09 05:49:03;;;;;;;1.00;0.60;;;;;;;28.26;32.94;97211.84;5073887;28;20032;-28
2022/07/09 05:51:28;;;;;;;2.38;0.80;;;;;;;28.27;33.01;97224.53;5073572;28;20024;-29
2022/07/09 05:53:54;;;;;;;1.20;0.90;;;;;;;28.22;33.09;97223.31;5073674;28;20145;-28
2022/07/09 05:56:20;;;;;;;2.10;0.90;;;;;;;28.21;33.42;97214.19;5073619;28;20119;-28
2022/07/09 05:58:45;;;;;;;1.63;1.00;;;;;;;28.23;33.35;97217.22;5073931;28;20024;-27
2022/07/09 06:01:12;;;;;;;1.80;0.82;;;;;;;28.14;33.21;97211.97;5073864;28;20095;-28
2022/07/09 06:03:38;;;;;;;1.33;0.68;;;;;;;28.31;32.77;97222.97;5073569;28;20024;-27
2022/07/09 06:06:04;;;;;;;1.58;0.80;;;;;;;28.27;32.96;97214.13;5073506;28;20067;-27
2022/07/09 06:08:31;;;;;;;1.80;0.70;;;;;;;28.36;32.84;97213.75;5073329;28;20083;-28
2022/07/09 06:10:57;;;;;;;2.13;0.80;;;;;;;28.31;33.04;97216.63;5073781;28;20060;-27
2022/07/09 06:13:22;;;;;;;2.75;1.00;;;;;;;28.22;32.87;97218.47;5081626;28;20052;-27
2022/07/09 06:15:48;;;;;;;1.23;0.70;;;;;;;28.21;33.02;97210.63;5091641;28;20032;-29
2022/07/09 06:18:13;;;;;;;1.83;0.73;;;;;;;28.30;32.89;97207.50;5091821;28;20093;-27
2022/07/09 06:20:39;;;;;;;1.95;0.75;;;;;;;28.23;33.34;97210.88;5091789;28;20038;-27
2022/07/09 06:23:04;;;;;;;2.83;1.02;;;;;;;28.27;33.01;97216.91;5091682;28;20027;-27
2022/07/09 06:25:30;;;;;;;2.17;0.85;;;;;;;28.30;32.86;97218.66;5079708;28;20021;-27
2022/07/09 06:27:55;;;;;;;2.55;0.70;;;;;;;28.28;33.00;97228.81;5069343;28;20036;-27
2022/07/09 06:30:21;;;;;;;2.00;0.80;;;;;;;28.27;32.93;97224.53;5071460;28;20511;-27
2022/07/09 06:32:46;;;;;;;1.67;0.80;;;;;;;28.26;32.84;97225.81;5071203;28;20103;-27
2022/07/09 06:35:12;;;;;;;2.83;0.88;;;;;;;28.24;33.02;97229.13;5071118;28;20049;-27
2022/07/09 06:37:37;;;;;;;0.93;0.75;;;;;;;28.14;33.06;97222.38;5070999;28;20077;-28
2022/07/09 06:40:04;;;;;;;1.88;0.80;;;;;;;26.07;36.58;97228.72;5070765;28;20111;-28
2022/07/09 06:42:30;;;;;;;3.10;1.00;;;;;;;26.93;35.43;97226.56;5071301;28;20028;-29
2022/07/09 06:44:55;;;;;;;8.00;0.80;;;;;;;27.45;34.02;97223.56;5070525;28;20024;-28
2022/07/09 06:47:21;;;;;;;2.45;1.00;;;;;;;27.61;33.80;97226.75;5071212;28;20036;-28
2022/07/09 06:49:46;;;;;;;4.07;1.00;;;;;;;27.86;33.20;97223.44;5070932;28;20104;-27
2022/07/09 06:52:12;;;;;;;2.97;0.80;;;;;;;27.92;33.03;97225.44;5070638;28;20024;-29
2022/07/09 06:54:38;;;;;;;4.50;0.80;;;;;;;27.90;33.60;97239.88;5069605;28;20066;-28
2022/07/09 06:57:04;;;;;;;2.85;0.70;;;;;;;27.98;33.21;97240.03;5070711;28;20051;-28
2022/07/09 06:59:30;;;;;;;2.55;0.95;;;;;;;27.89;33.44;97238.38;5069456;28;20035;-28
2022/07/09 07:01:55;;;;;;;2.25;1.10;;;;;;;27.94;33.04;97242.38;5081399;28;20028;-28
2022/07/09 07:04:21;;;;;;;2.60;0.82;;;;;;;28.00;33.19;97241.03;5091261;28;20046;-28
2022/07/09 07:06:48;;;;;;;2.70;0.85;;;;;;;28.04;33.06;97238.72;5090871;28;20052;-29
2022/07/09 07:09:18;;;;;;;2.83;1.00;;;;;;;27.94;33.02;97229.19;5091339;28;20028;-28
2022/07/09 07:11:44;;;;;;;2.53;0.95;;;;;;;27.72;33.64;97230.19;5091115;28;20546;-29
2022/07/09 07:14:10;;;;;;;1.83;0.90;;;;;;;27.99;33.16;97230.41;5090890;28;20024;-29
2022/07/09 07:16:35;;;;;;;1.33;0.88;;;;;;;27.99;33.07;97230.41;5090905;28;20390;-29
2022/07/09 07:19:01;;;;;;;1.75;0.98;;;;;;;28.03;33.21;97230.88;5091184;28;20028;-28
2022/07/09 07:21:26;;;;;;;3.90;1.17;;;;;;;27.82;33.07;97227.78;5091015;28;20031;-28
2022/07/09 07:23:52;;;;;;;3.22;1.00;;;;;;;27.52;33.72;97228.59;5089669;28;20043;-29
2022/07/09 07:26:17;;;;;;;1.60;0.90;;;;;;;27.69;33.47;97222.88;5088876;28;20810;-29
2022/07/09 07:28:43;;;;;;;1.63;0.98;;;;;;;27.79;33.34;97226.81;5090972;28;20032;-28
2022/07/09 07:31:08;;;;;;;2.30;0.80;;;;;;;27.97;32.80;97230.91;5090767;28;20063;-28
2022/07/09 07:33:34;;;;;;;1.88;0.95;;;;;;;27.94;33.01;97234.03;5090925;28;20131;-28
2022/07/09 07:35:59;;;;;;;1.13;0.80;;;;;;;27.81;33.37;97231.88;5082791;28;20371;-28
2022/07/09 07:38:27;;;;;;;1.98;0.90;;;;;;;27.90;33.36;97231.53;5073677;28;20032;-28
2022/07/09 07:40:55;;;;;;;1.38;0.88;;;;;;;27.95;33.06;97241.84;5076454;28;20035;-28
2022/07/09 07:43:21;;;;;;;1.90;0.82;;;;;;;27.67;33.35;97227.47;5076028;28;20024;-28
2022/07/09 07:45:46;;;;;;;1.85;0.98;;;;;;;27.69;33.58;97222.13;5076465;28;20372;-28
2022/07/09 07:48:13;;;;;;;2.95;0.85;;;;;;;27.76;33.10;97232.69;5076254;28;20379;-29
2022/07/09 07:50:38;;;;;;;1.08;0.80;;;;;;;27.77;33.22;97231.41;5076002;28;20030;-29
2022/07/09 07:53:07;;;;;;;2.53;0.90;;;;;;;27.84;33.42;97226.00;5075810;28;20053;-28
2022/07/09 07:55:34;;;;;;;2.45;1.10;;;;;;;27.95;32.99;97232.72;5075468;28;20047;-28
2022/07/09 07:57:59;;;;;;;3.78;1.20;;;;;;;27.92;33.22;97217.81;5075752;28;20031;-28
2022/07/09 08:00:24;;;;;;;2.35;1.10;;;;;;;27.74;33.00;97226.88;5076073;28;20020;-28
2022/07/09 08:02:50;;;;;;;1.05;0.80;;;;;;;27.93;32.77;97227.69;5075814;28;20489;-28
2022/07/09 08:05:16;;;;;;;2.15;1.00;;;;;;;27.88;32.72;97226.47;5075730;28;20461;-28
2022/07/09 08:07:42;;;;;;;1.70;0.93;;;;;;;27.97;32.47;97221.81;5075422;28;20041;-28
2022/07/09 08:10:08;;;;;;;3.05;0.80;;;;;;;27.77;32.89;97226.59;5076017;28;20052;-28
2022/07/09 08:12:33;;;;;;;2.85;0.90;;;;;;;27.76;32.58;97225.06;5075702;28;20054;-28
2022/07/09 08:14:59;;;;;;;1.27;0.98;;;;;;;27.85;32.89;97221.94;5075644;28;20592;-29
2022/07/09 08:17:24;;;;;;;2.20;0.85;;;;;;;28.00;32.82;97224.31;5075829;28;20021;-28
2022/07/09 08:19:50;;;;;;;2.78;0.90;;;;;;;27.96;32.36;97218.25;5075476;28;20028;-28
2022/07/09 08:22:16;;;;;;;1.58;0.90;;;;;;;27.68;32.99;97212.25;5075505;28;20028;-28
2022/07/09 08:24:41;;;;;;;1.75;0.90;;;;;;;27.76;32.65;97225.06;5075555;28;20502;-28
2022/07/09 08:27:07;;;;;;;1.10;0.80;;;;;;;27.72;32.73;97226.63;5075434;28;20039;-28
2022/07/09 08:29:32;;;;;;;1.83;0.82;;;;;;;27.70;32.71;97224.38;5075337;28;20035;-28
2022/07/09 08:31:58;;;;;;;1.60;0.85;;;;;;;27.77;32.30;97231.41;5075553;28;20026;-28
2022/07/09 08:34:23;;;;;;;1.35;0.80;;;;;;;27.67;32.49;97221.88;5075489;28;20021;-28
2022/07/09 08:36:49;;;;;;;1.88;0.93;;;;;;;27.66;32.48;97229.50;5075205;28;20403;-28
2022/07/09 08:39:14;;;;;;;2.03;0.80;;;;;;;27.54;32.44;97231.59;5073941;28;20031;-28
2022/07/09 08:41:40;;;;;;;1.90;0.93;;;;;;;27.39;32.58;97236.81;5075265;28;20020;-28
2022/07/09 08:44:11;;;;;;;1.20;0.80;;;;;;;27.56;32.51;97238.72;5075130;28;20463;-28
2022/07/09 08:46:37;;;;;;;4.72;0.93;;;;;;;27.57;32.01;97223.50;5074996;28;20428;-28
2022/07/09 08:49:03;;;;;;;1.90;0.70;;;;;;;27.71;32.10;97227.91;5074771;28;20016;-28
2022/07/09 08:51:30;;;;;;;1.13;0.60;;;;;;;27.80;32.11;97219.22;5074181;28;20032;-28
2022/07/09 08:53:56;;;;;;;2.80;1.08;;;;;;;27.48;32.54;97230.13;5075181;28;20089;-28
2022/07/09 08:56:22;;;;;;;3.13;1.00;;;;;;;27.39;32.88;97224.91;5074991;28;20463;-28
2022/07/09 08:58:47;;;;;;;3.50;0.85;;;;;;;27.64;32.47;97231.28;5074717;28;20510;-28
2022/07/09 09:01:17;;;;;;;2.45;0.85;;;;;;;27.59;32.44;97234.88;5074985;28;20028;-28
2022/07/09 09:03:43;;;;;;;3.22;1.10;;;;;;;27.26;33.10;97228.31;5075038;28;20470;-28
2022/07/09 09:06:10;;;;;;;3.45;1.23;;;;;;;27.48;32.43;97228.09;5074747;28;20025;-28
2022/07/09 09:08:38;;;;;;;1.38;0.93;;;;;;;27.48;32.52;97230.88;5073135;28;20406;-28
2022/07/09 09:11:05;;;;;;;1.15;0.80;;;;;;;27.54;32.78;97214.13;5074649;28;20036;-28
2022/07/09 09:13:39;;;;;;;1.50;0.70;;;;;;;27.77;32.17;97223.03;5074583;28;20028;-28
2022/07/09 09:16:06;;;;;;;1.77;0.70;;;;;;;27.71;32.29;97234.25;5074385;28;20102;-28
2022/07/09 09:18:35;;;;;;;2.22;0.90;;;;;;;27.82;32.26;97227.78;5074567;28;20107;-28
2022/07/09 09:21:05;;;;;;;2.90;0.90;;;;;;;27.43;33.09;97226.16;5074343;28;20032;-30
2022/07/09 09:23:44;;;;;;;1.55;0.75;;;;;;;27.45;33.20;97231.94;5074557;28;20127;-28
2022/07/09 09:26:10;;;;;;;1.77;0.82;;;;;;;27.58;33.03;97230.56;5089306;28;20509;-28
2022/07/09 09:28:53;;;;;;;2.00;0.85;;;;;;;27.48;33.28;97228.09;5074199;28;20028;-28
2022/07/09 09:31:20;;;;;;;1.20;1.00;;;;;;;27.40;33.40;97215.28;5074123;28;20036;-28
2022/07/09 09:33:46;;;;;;;2.90;0.90;;;;;;;27.67;32.89;97224.69;5074109;28;20024;-28
2022/07/09 09:36:22;;;;;;;1.65;0.88;;;;;;;27.47;32.95;97223.06;5070962;28;20028;-28
2022/07/09 09:38:48;;;;;;;3.40;1.17;;;;;;;27.68;32.81;97231.75;5072681;28;20421;-28
2022/07/09 09:41:22;;;;;;;1.70;0.90;;;;;;;27.61;32.82;97235.09;5073981;28;20024;-28
2022/07/09 09:43:48;;;;;;;2.58;1.10;;;;;;;27.24;33.16;97236.41;5072948;28;20055;-28
2022/07/09 09:46:14;;;;;;;2.38;0.90;;;;;;;27.54;32.70;97223.25;5073698;28;20038;-28
2022/07/09 09:48:40;;;;;;;1.00;0.80;;;;;;;27.43;32.16;97230.97;5072521;28;20024;-28
2022/07/09 09:51:06;;;;;;;2.35;0.85;;;;;;;27.59;32.18;97220.94;5073886;28;20029;-27
2022/07/09 09:53:32;;;;;;;2.03;1.00;;;;;;;27.63;32.13;97224.19;5074275;28;20070;-28
2022/07/09 09:55:58;;;;;;;0.93;0.80;;;;;;;27.44;32.30;97222.09;5073610;28;20070;-28
2022/07/09 09:58:23;;;;;;;1.88;0.90;;;;;;;27.58;32.46;97220.19;5073519;28;20383;-28
2022/07/09 10:00:49;;;;;;;2.20;1.10;;;;;;;27.56;32.68;97211.63;5073466;28;20060;-29
2022/07/09 10:03:16;;;;;;;1.08;0.90;;;;;;;27.69;32.53;97208.19;5073620;28;20021;-28
2022/07/09 10:05:42;;;;;;;1.92;1.10;;;;;;;27.47;32.33;97209.13;5073603;28;20024;-29
2022/07/09 10:08:08;;;;;;;1.13;0.75;;;;;;;27.44;32.63;97210.19;5080455;28;20052;-28
2022/07/09 10:10:34;;;;;;;1.60;1.00;;;;;;;27.74;32.00;97204.56;5092507;28;20114;-28
2022/07/09 10:12:59;;;;;;;3.10;0.98;;;;;;;27.74;32.12;97204.56;5093948;28;20553;-28
2022/07/09 10:15:26;;;;;;;2.25;0.90;;;;;;;27.36;31.42;97200.88;5093592;28;20024;-28
2022/07/09 10:17:52;;;;;;;1.73;0.82;;;;;;;27.63;31.72;97204.69;5093498;28;20024;-29
2022/07/09 10:20:30;;;;;;;2.72;1.15;;;;;;;27.51;30.90;97207.56;5093608;28;20436;-30
2022/07/09 10:22:56;;;;;;;1.80;0.80;;;;;;;27.43;30.73;97211.47;5093565;28;20355;-28
2022/07/09 10:25:29;;;;;;;2.03;0.82;;;;;;;27.71;31.59;97211.19;5093469;28;20142;-29
2022/07/09 10:27:55;;;;;;;1.75;0.90;;;;;;;28.41;30.16;97203.81;5093615;28;20066;-29
2022/07/09 10:30:28;;;;;;;2.00;0.85;;;;;;;29.20;29.42;97218.88;5093443;28;20485;-28
2022/07/09 10:33:07;;;;;;;1.85;0.90;;;;;;;29.59;29.00;97195.88;5093492;28;20047;-30
2022/07/09 10:35:47;;;;;;;1.17;0.73;;;;;;;29.65;28.77;97198.56;5093828;28;20095;-29
2022/07/09 10:38:14;;;;;;;1.90;1.00;;;;;;;29.87;28.31;97205.78;5093250;28;20101;-29
2022/07/09 10:40:44;;;;;;;1.00;0.90;;;;;;;29.93;28.98;97195.97;5093313;28;20020;-29
2022/07/09 10:43:11;;;;;;;2.55;1.40;;;;;;;30.09;28.30;97196.97;5093622;28;20020;-29
2022/07/09 10:45:44;;;;;;;1.10;1.00;;;;;;;30.11;28.56;97199.97;5090611;28;20103;-29
2022/07/09 10:48:11;;;;;;;4.00;1.23;;;;;;;30.14;28.07;97198.16;5090074;28;20051;-30
2022/07/09 10:50:40;;;;;;;3.05;0.93;;;;;;;30.09;28.39;97191.38;5091453;28;20020;-28
2022/07/09 10:53:07;;;;;;;2.95;1.10;;;;;;;30.19;28.17;97197.28;5091301;28;20389;-29
2022/07/09 10:55:32;;;;;;;1.40;1.00;;;;;;;30.23;28.31;97190.06;5091220;28;20497;-31
2022/07/09 10:57:58;;;;;;;1.63;0.95;;;;;;;30.33;27.78;97188.31;5090708;28;20028;-29
2022/07/09 11:00:29;;;;;;;3.20;1.08;;;;;;;30.31;27.92;97179.69;5091166;28;20024;-29
2022/07/09 11:03:05;;;;;;;1.13;0.98;;;;;;;30.25;28.25;97181.88;5090962;28;20020;-30
2022/07/09 11:05:43;;;;;;;1.75;1.13;;;;;;;30.29;27.97;97178.75;5091382;28;20020;-29
2022/07/09 11:08:09;;;;;;;1.42;1.02;;;;;;;30.26;28.50;97180.59;5091060;28;20048;-29
2022/07/09 11:10:37;;;;;;;1.20;0.90;;;;;;;30.34;27.98;97184.22;5090780;28;20032;-29
2022/07/09 11:13:06;;;;;;;3.03;1.20;;;;;;;30.26;28.43;97172.19;5091608;28;20031;-30
2022/07/09 11:15:33;;;;;;;2.78;1.10;;;;;;;30.29;27.78;97171.09;5094802;28;20028;-29
2022/07/09 11:18:01;;;;;;;3.20;1.08;;;;;;;30.35;28.37;97162.59;5094716;28;20082;-29
2022/07/09 11:20:28;;;;;;;4.00;1.35;;;;;;;30.30;28.44;97160.66;5080434;28;20136;-29
2022/07/09 11:22:56;;;;;;;5.07;1.35;;;;;;;30.23;28.27;97156.50;5085717;28;20036;-30
2022/07/09 11:25:24;;;;;;;5.72;1.40;;;;;;;30.27;28.11;97151.31;5094716;28;20020;-29
2022/07/09 11:27:50;;;;;;;1.92;1.50;;;;;;;30.29;27.95;97137.53;5094531;28;20081;-29
2022/07/09 11:30:15;;;;;;;2.22;1.40;;;;;;;30.29;28.02;97123.53;5094851;28;20428;-29